createdAt,value
2022-11-24T00:09:05.132Z,0
2022-11-24T00:14:23.516Z,0
2022-11-24T00:25:01.984Z,0
2022-11-24T00:30:20.903Z,0
2022-11-24T00:35:39.404Z,0
2022-11-24T00:40:58.375Z,0
2022-11-24T00:51:37.369Z,0
2022-11-24T00:56:56.760Z,0
2022-11-24T01:02:16.101Z,0
2022-11-24T01:07:35.592Z,0
2022-11-24T01:12:54.773Z,0
2022-11-24T01:18:14.348Z,0
2022-11-24T01:23:34.034Z,0
2022-11-24T01:28:53.802Z,0
2022-11-24T01:34:12.361Z,0
2022-11-24T01:44:50.284Z,0
2022-11-24T01:50:09.115Z,0
2022-11-24T01:55:28.075Z,0
2022-11-24T02:00:47.069Z,0
2022-11-24T02:11:25.661Z,0
2022-11-24T02:16:44.982Z,0
2022-11-24T02:27:23.991Z,0
2022-11-24T02:32:42.853Z,0
2022-11-24T02:38:01.043Z,0
2022-11-24T02:43:20.126Z,0
2022-11-24T02:53:59.372Z,0
2022-11-24T02:59:19.179Z,0
2022-11-24T03:09:57.644Z,0
2022-11-24T03:16:31.857Z,0
2022-11-24T03:20:34.878Z,0
2022-11-24T03:25:53.679Z,0
2022-11-24T03:36:32.098Z,0
2022-11-24T03:41:51.635Z,0
2022-11-24T03:52:29.632Z,0
2022-11-24T03:57:49.027Z,0
2022-11-24T04:08:25.995Z,0
2022-11-24T04:13:44.829Z,0
2022-11-24T04:19:03.861Z,0
2022-11-24T04:24:23.464Z,0
2022-11-24T04:29:43.151Z,0
2022-11-24T04:35:02.151Z,0
2022-11-24T04:40:22.387Z,0
2022-11-24T04:45:41.227Z,0
2022-11-24T04:51:00.111Z,0
2022-11-24T04:56:18.545Z,0
2022-11-24T05:01:38.239Z,0
2022-11-24T05:06:57.663Z,0
2022-11-24T05:17:36.560Z,0
2022-11-24T05:22:55.947Z,0
2022-11-24T05:33:34.405Z,0
2022-11-24T05:38:53.708Z,0
2022-11-24T05:44:12.791Z,0
2022-11-24T05:49:32.277Z,0
2022-11-24T05:54:51.499Z,0
2022-11-24T06:00:10.855Z,0
2022-11-24T06:05:30.362Z,0
2022-11-24T06:16:09.393Z,2
2022-11-24T06:21:28.518Z,5
2022-11-24T06:32:05.883Z,26
2022-11-24T06:42:43.526Z,124
2022-11-24T06:48:02.948Z,239
2022-11-24T06:58:42.054Z,423
2022-11-24T07:04:00.972Z,312
2022-11-24T07:09:20.362Z,570
2022-11-24T07:20:11.050Z,557
2022-11-24T07:25:19.131Z,846
2022-11-24T07:30:38.187Z,794
2022-11-24T07:35:56.925Z,1197
2022-11-24T07:44:30.004Z,936
2022-11-24T07:48:46.545Z,1159
2022-11-24T07:51:53.063Z,790
2022-11-24T08:02:32.810Z,1140
2022-11-24T08:07:52.419Z,1026
2022-11-24T08:14:26.506Z,987
2022-11-24T08:23:50.940Z,1668
2022-11-24T08:32:24.062Z,1112
2022-11-24T08:34:29.379Z,1398
2022-11-24T08:39:49.082Z,2555
2022-11-24T08:45:20.259Z,3659
2022-11-24T08:50:28.269Z,2366
2022-11-24T09:01:06.727Z,1596
2022-11-24T09:06:25.516Z,1963
2022-11-24T09:14:58.583Z,2844
2022-11-24T09:19:14.040Z,3005
2022-11-24T09:22:22.225Z,2915
2022-11-24T09:28:56.413Z,3405
2022-11-24T09:33:11.835Z,3320
2022-11-24T09:38:19.223Z,2845
2022-11-24T09:44:53.320Z,2224
2022-11-24T09:48:58.285Z,2013
2022-11-24T09:59:37.005Z,5275
2022-11-24T10:04:54.568Z,5175
2022-11-24T10:15:33.631Z,8643
2022-11-24T10:20:53.033Z,8471
2022-11-24T10:26:12.564Z,5375
2022-11-24T10:31:31.977Z,9411
2022-11-24T10:36:50.934Z,5932
2022-11-24T10:42:09.693Z,7244
2022-11-24T10:47:28.856Z,7562
2022-11-24T10:58:08.006Z,8913
2022-11-24T11:03:27.422Z,6428
2022-11-24T11:08:46.414Z,6108
2022-11-24T11:14:05.471Z,4128
2022-11-24T11:24:43.064Z,6282
2022-11-24T11:35:21.976Z,8283
2022-11-24T11:40:41.370Z,5902
2022-11-24T11:46:01.195Z,5052
2022-11-24T11:56:39.265Z,7640
2022-11-24T12:07:17.991Z,6798
2022-11-24T12:12:37.306Z,8317
2022-11-24T12:23:15.127Z,7339
2022-11-24T12:28:34.070Z,7251
2022-11-24T12:39:12.499Z,3949
2022-11-24T12:44:31.967Z,4472
2022-11-24T12:49:51.612Z,4431
2022-11-24T12:55:11.277Z,6464
2022-11-24T13:05:48.937Z,4935
2022-11-24T13:11:08.509Z,4446
2022-11-24T13:21:55.670Z,4728
2022-11-24T13:27:05.634Z,4790
2022-11-24T13:32:25.085Z,5181
2022-11-24T13:37:45.395Z,4491
2022-11-24T13:48:49.829Z,3639
2022-11-24T13:54:09.134Z,2543
2022-11-24T13:59:28.462Z,3320
2022-11-24T14:04:47.821Z,2637
2022-11-24T14:10:06.462Z,2142
2022-11-24T14:15:26.207Z,2600
2022-11-24T14:20:45.577Z,2378
2022-11-24T14:36:43.410Z,1527
2022-11-24T14:42:03.755Z,1625
2022-11-24T14:47:27.255Z,1596
2022-11-24T14:52:42.053Z,1669
2022-11-24T14:58:01.024Z,1324
2022-11-24T15:03:20.242Z,800
2022-11-24T15:13:58.262Z,547
2022-11-24T15:19:17.301Z,440
2022-11-24T15:24:36.754Z,291
2022-11-24T15:29:55.725Z,203
2022-11-24T15:35:15.376Z,116
2022-11-24T15:40:34.544Z,61
2022-11-24T15:45:54.178Z,27
2022-11-24T15:56:32.616Z,4
2022-11-24T16:01:52.317Z,0
2022-11-24T16:12:30.791Z,0
2022-11-24T16:17:50.515Z,0
2022-11-24T16:23:09.245Z,0
2022-11-24T16:28:28.453Z,0
2022-11-24T16:39:06.346Z,0
2022-11-24T16:44:25.310Z,0
2022-11-24T16:49:45.485Z,0
2022-11-24T16:55:03.960Z,0
2022-11-24T17:00:23.000Z,0
2022-11-24T17:05:42.714Z,0
2022-11-24T17:11:01.686Z,0
2022-11-24T17:16:21.088Z,0
2022-11-24T17:21:40.232Z,0
2022-11-24T17:26:59.117Z,0
2022-11-24T17:37:37.061Z,0
2022-11-24T17:42:56.315Z,0
2022-11-24T17:53:34.561Z,0
2022-11-24T17:58:54.141Z,0
2022-11-24T18:04:12.970Z,0
2022-11-24T18:09:32.264Z,0
2022-11-24T18:20:10.515Z,0
2022-11-24T18:25:30.018Z,0
2022-11-24T18:30:49.070Z,0
2022-11-24T18:36:09.046Z,0
2022-11-24T18:41:28.148Z,0
2022-11-24T18:46:47.536Z,0
2022-11-24T18:52:06.524Z,0
2022-11-24T18:57:26.072Z,0
2022-11-24T19:02:45.581Z,0
2022-11-24T19:08:04.537Z,0
2022-11-24T19:14:38.760Z,0
2022-11-24T19:18:47.596Z,0
2022-11-24T19:24:05.150Z,0
2022-11-24T19:29:23.423Z,0
2022-11-24T19:34:43.140Z,0
2022-11-24T19:40:02.816Z,0
2022-11-24T19:45:20.581Z,0
2022-11-24T19:50:40.211Z,0
2022-11-24T20:01:18.207Z,0
2022-11-24T20:06:37.203Z,0
2022-11-24T20:11:56.656Z,0
2022-11-24T20:17:15.988Z,0
2022-11-24T20:27:54.678Z,0
2022-11-24T20:33:13.904Z,0
2022-11-24T20:43:52.972Z,0
2022-11-24T20:49:12.228Z,0
2022-11-24T20:54:31.167Z,0
2022-11-24T20:59:50.636Z,0
2022-11-24T21:05:09.612Z,0
2022-11-24T21:10:28.990Z,0
2022-11-24T21:15:47.777Z,0
2022-11-24T21:26:26.937Z,0
2022-11-24T21:31:46.886Z,0
2022-11-24T21:37:06.668Z,0
2022-11-24T21:47:45.302Z,0
2022-11-24T21:53:04.991Z,0
2022-11-24T22:03:53.453Z,0
2022-11-24T22:09:03.204Z,0
2022-11-24T22:19:42.288Z,0
2022-11-24T22:30:21.188Z,0
2022-11-24T22:35:40.979Z,0
2022-11-24T22:40:59.857Z,0
2022-11-24T22:46:18.873Z,0
2022-11-24T22:51:39.289Z,0
2022-11-24T23:02:17.987Z,0
2022-11-24T23:07:37.299Z,0
2022-11-24T23:12:57.015Z,0
2022-11-24T23:18:16.787Z,0
2022-11-24T23:28:54.450Z,0
2022-11-24T23:34:13.564Z,0
2022-11-24T23:45:00.675Z,0
2022-11-24T23:50:11.842Z,0
2022-11-24T23:55:30.839Z,0
